sensor_id;sensor_type;location;lat;lon;timestamp;P1;durP1;ratioP1;P2;durP2;ratioP2
22160;SDS011;49035;48.812;11.762;2023-12-04T00:02:10;22.30;;;9.50;;
22160;SDS011;49035;48.812;11.762;2023-12-04T00:04:35;17.37;;;9.73;;
22160;SDS011;49035;48.812;11.762;2023-12-04T00:07:01;18.67;;;8.67;;
22160;SDS011;49035;48.812;11.762;2023-12-04T00:09:26;14.30;;;8.27;;
22160;SDS011;49035;48.812;11.762;2023-12-04T00:11:53;21.10;;;9.80;;
22160;SDS011;49035;48.812;11.762;2023-12-04T00:14:18;11.53;;;6.37;;
22160;SDS011;49035;48.812;11.762;2023-12-04T00:16:44;13.67;;;6.67;;
22160;SDS011;49035;48.812;11.762;2023-12-04T00:19:09;16.80;;;7.67;;
22160;SDS011;49035;48.812;11.762;2023-12-04T00:21:35;21.27;;;9.80;;
22160;SDS011;49035;48.812;11.762;2023-12-04T00:24:00;18.40;;;10.07;;
22160;SDS011;49035;48.812;11.762;2023-12-04T00:26:26;19.77;;;8.60;;
22160;SDS011;49035;48.812;11.762;2023-12-04T00:28:52;19.07;;;9.43;;
22160;SDS011;49035;48.812;11.762;2023-12-04T00:31:17;16.43;;;8.13;;
22160;SDS011;49035;48.812;11.762;2023-12-04T00:33:43;19.83;;;9.50;;
22160;SDS011;49035;48.812;11.762;2023-12-04T00:36:09;18.90;;;9.93;;
22160;SDS011;49035;48.812;11.762;2023-12-04T00:38:35;18.50;;;8.30;;
22160;SDS011;49035;48.812;11.762;2023-12-04T00:41:00;19.30;;;10.67;;
22160;SDS011;49035;48.812;11.762;2023-12-04T00:43:26;17.40;;;9.47;;
22160;SDS011;49035;48.812;11.762;2023-12-04T00:45:51;19.00;;;8.50;;
22160;SDS011;49035;48.812;11.762;2023-12-04T00:48:17;22.70;;;8.27;;
22160;SDS011;49035;48.812;11.762;2023-12-04T00:50:42;19.57;;;8.63;;
22160;SDS011;49035;48.812;11.762;2023-12-04T00:53:08;18.73;;;8.07;;
22160;SDS011;49035;48.812;11.762;2023-12-04T00:55:34;19.23;;;8.23;;
22160;SDS011;49035;48.812;11.762;2023-12-04T00:57:59;18.87;;;8.33;;
22160;SDS011;49035;48.812;11.762;2023-12-04T01:00:25;18.67;;;9.70;;
22160;SDS011;49035;48.812;11.762;2023-12-04T01:02:51;21.10;;;9.30;;
22160;SDS011;49035;48.812;11.762;2023-12-04T01:05:16;17.50;;;8.30;;
22160;SDS011;49035;48.812;11.762;2023-12-04T01:07:42;15.23;;;7.77;;
22160;SDS011;49035;48.812;11.762;2023-12-04T01:10:08;13.70;;;7.40;;
22160;SDS011;49035;48.812;11.762;2023-12-04T01:12:33;15.87;;;7.77;;
22160;SDS011;49035;48.812;11.762;2023-12-04T01:15:00;25.47;;;9.63;;
22160;SDS011;49035;48.812;11.762;2023-12-04T01:17:26;20.53;;;9.20;;
22160;SDS011;49035;48.812;11.762;2023-12-04T01:19:52;17.20;;;8.30;;
22160;SDS011;49035;48.812;11.762;2023-12-04T01:22:18;15.70;;;8.13;;
22160;SDS011;49035;48.812;11.762;2023-12-04T01:24:43;16.53;;;8.40;;
22160;SDS011;49035;48.812;11.762;2023-12-04T01:27:09;18.43;;;9.20;;
22160;SDS011;49035;48.812;11.762;2023-12-04T01:29:35;15.73;;;7.13;;
22160;SDS011;49035;48.812;11.762;2023-12-04T01:32:01;18.57;;;9.10;;
22160;SDS011;49035;48.812;11.762;2023-12-04T01:34:27;20.40;;;9.73;;
22160;SDS011;49035;48.812;11.762;2023-12-04T01:36:52;17.87;;;8.27;;
22160;SDS011;49035;48.812;11.762;2023-12-04T01:39:18;19.77;;;8.47;;
22160;SDS011;49035;48.812;11.762;2023-12-04T01:41:43;19.17;;;8.80;;
22160;SDS011;49035;48.812;11.762;2023-12-04T01:44:09;19.03;;;9.13;;
22160;SDS011;49035;48.812;11.762;2023-12-04T01:46:35;15.10;;;7.60;;
22160;SDS011;49035;48.812;11.762;2023-12-04T01:49:01;14.97;;;8.90;;
22160;SDS011;49035;48.812;11.762;2023-12-04T01:51:28;19.70;;;9.30;;
22160;SDS011;49035;48.812;11.762;2023-12-04T01:53:55;18.00;;;8.87;;
22160;SDS011;49035;48.812;11.762;2023-12-04T01:56:23;21.77;;;9.40;;
22160;SDS011;49035;48.812;11.762;2023-12-04T01:58:49;16.60;;;8.33;;
22160;SDS011;49035;48.812;11.762;2023-12-04T02:01:15;15.13;;;7.80;;
22160;SDS011;49035;48.812;11.762;2023-12-04T02:03:41;17.10;;;8.40;;
22160;SDS011;49035;48.812;11.762;2023-12-04T02:06:07;24.30;;;10.17;;
22160;SDS011;49035;48.812;11.762;2023-12-04T02:08:34;16.40;;;8.40;;
22160;SDS011;49035;48.812;11.762;2023-12-04T02:11:00;13.37;;;7.87;;
22160;SDS011;49035;48.812;11.762;2023-12-04T02:13:26;20.27;;;9.47;;
22160;SDS011;49035;48.812;11.762;2023-12-04T02:15:53;18.47;;;8.20;;
22160;SDS011;49035;48.812;11.762;2023-12-04T02:18:20;20.00;;;8.93;;
22160;SDS011;49035;48.812;11.762;2023-12-04T02:20:47;17.30;;;8.87;;
22160;SDS011;49035;48.812;11.762;2023-12-04T02:23:12;14.97;;;7.70;;
22160;SDS011;49035;48.812;11.762;2023-12-04T02:25:38;16.43;;;8.40;;
22160;SDS011;49035;48.812;11.762;2023-12-04T02:28:07;15.43;;;7.57;;
22160;SDS011;49035;48.812;11.762;2023-12-04T02:30:36;14.50;;;7.43;;
22160;SDS011;49035;48.812;11.762;2023-12-04T02:33:04;17.13;;;8.63;;
22160;SDS011;49035;48.812;11.762;2023-12-04T02:35:31;19.77;;;9.73;;
22160;SDS011;49035;48.812;11.762;2023-12-04T02:38:00;17.10;;;8.63;;
22160;SDS011;49035;48.812;11.762;2023-12-04T02:40:26;13.97;;;7.73;;
22160;SDS011;49035;48.812;11.762;2023-12-04T02:42:52;17.17;;;7.33;;
22160;SDS011;49035;48.812;11.762;2023-12-04T02:45:17;15.23;;;7.33;;
22160;SDS011;49035;48.812;11.762;2023-12-04T02:47:43;13.47;;;7.10;;
22160;SDS011;49035;48.812;11.762;2023-12-04T02:50:08;17.50;;;7.67;;
22160;SDS011;49035;48.812;11.762;2023-12-04T02:52:34;13.47;;;6.43;;
22160;SDS011;49035;48.812;11.762;2023-12-04T02:55:00;18.30;;;8.53;;
22160;SDS011;49035;48.812;11.762;2023-12-04T02:57:25;18.50;;;8.67;;
22160;SDS011;49035;48.812;11.762;2023-12-04T02:59:52;16.00;;;7.27;;
22160;SDS011;49035;48.812;11.762;2023-12-04T03:02:17;16.67;;;7.87;;
22160;SDS011;49035;48.812;11.762;2023-12-04T03:04:43;16.87;;;7.80;;
22160;SDS011;49035;48.812;11.762;2023-12-04T03:07:10;18.30;;;8.53;;
22160;SDS011;49035;48.812;11.762;2023-12-04T03:09:36;21.73;;;9.37;;
22160;SDS011;49035;48.812;11.762;2023-12-04T03:12:01;18.37;;;9.57;;
22160;SDS011;49035;48.812;11.762;2023-12-04T03:14:27;18.87;;;8.27;;
22160;SDS011;49035;48.812;11.762;2023-12-04T03:16:52;18.20;;;8.17;;
22160;SDS011;49035;48.812;11.762;2023-12-04T03:19:18;17.80;;;8.30;;
22160;SDS011;49035;48.812;11.762;2023-12-04T03:21:43;15.10;;;7.30;;
22160;SDS011;49035;48.812;11.762;2023-12-04T03:24:09;18.70;;;7.43;;
22160;SDS011;49035;48.812;11.762;2023-12-04T03:26:35;20.03;;;9.53;;
22160;SDS011;49035;48.812;11.762;2023-12-04T03:29:00;16.23;;;6.87;;
22160;SDS011;49035;48.812;11.762;2023-12-04T03:31:26;14.20;;;7.97;;
22160;SDS011;49035;48.812;11.762;2023-12-04T03:33:53;20.40;;;8.40;;
22160;SDS011;49035;48.812;11.762;2023-12-04T03:36:19;17.93;;;7.87;;
22160;SDS011;49035;48.812;11.762;2023-12-04T03:38:44;19.97;;;8.70;;
22160;SDS011;49035;48.812;11.762;2023-12-04T03:41:16;18.07;;;8.50;;
22160;SDS011;49035;48.812;11.762;2023-12-04T03:43:42;13.83;;;7.30;;
22160;SDS011;49035;48.812;11.762;2023-12-04T03:46:08;11.70;;;6.00;;
22160;SDS011;49035;48.812;11.762;2023-12-04T03:48:33;13.13;;;7.00;;
22160;SDS011;49035;48.812;11.762;2023-12-04T03:50:59;14.23;;;7.63;;
22160;SDS011;49035;48.812;11.762;2023-12-04T03:53:25;15.57;;;8.63;;
22160;SDS011;49035;48.812;11.762;2023-12-04T03:55:51;16.87;;;7.23;;
22160;SDS011;49035;48.812;11.762;2023-12-04T03:58:17;14.77;;;7.13;;
22160;SDS011;49035;48.812;11.762;2023-12-04T04:00:43;15.20;;;7.50;;
22160;SDS011;49035;48.812;11.762;2023-12-04T04:03:09;14.27;;;7.97;;
22160;SDS011;49035;48.812;11.762;2023-12-04T04:05:34;16.23;;;7.90;;
22160;SDS011;49035;48.812;11.762;2023-12-04T04:08:00;17.83;;;7.43;;
22160;SDS011;49035;48.812;11.762;2023-12-04T04:10:26;14.90;;;7.47;;
22160;SDS011;49035;48.812;11.762;2023-12-04T04:12:52;14.13;;;7.50;;
22160;SDS011;49035;48.812;11.762;2023-12-04T04:15:17;13.53;;;6.60;;
22160;SDS011;49035;48.812;11.762;2023-12-04T04:17:43;16.23;;;7.77;;
22160;SDS011;49035;48.812;11.762;2023-12-04T04:20:09;16.67;;;7.67;;
22160;SDS011;49035;48.812;11.762;2023-12-04T04:22:36;18.33;;;7.90;;
22160;SDS011;49035;48.812;11.762;2023-12-04T04:25:06;15.97;;;8.67;;
22160;SDS011;49035;48.812;11.762;2023-12-04T04:27:33;15.73;;;7.03;;
22160;SDS011;49035;48.812;11.762;2023-12-04T04:29:59;15.27;;;7.57;;
22160;SDS011;49035;48.812;11.762;2023-12-04T04:32:24;16.87;;;8.37;;
22160;SDS011;49035;48.812;11.762;2023-12-04T04:34:50;15.20;;;6.70;;
22160;SDS011;49035;48.812;11.762;2023-12-04T04:37:16;16.77;;;8.33;;
22160;SDS011;49035;48.812;11.762;2023-12-04T04:39:41;17.73;;;8.17;;
22160;SDS011;49035;48.812;11.762;2023-12-04T04:42:07;14.10;;;7.03;;
22160;SDS011;49035;48.812;11.762;2023-12-04T04:44:32;13.77;;;7.60;;
22160;SDS011;49035;48.812;11.762;2023-12-04T04:46:58;18.63;;;8.40;;
22160;SDS011;49035;48.812;11.762;2023-12-04T04:49:24;15.20;;;8.67;;
22160;SDS011;49035;48.812;11.762;2023-12-04T04:51:49;17.70;;;6.47;;
22160;SDS011;49035;48.812;11.762;2023-12-04T04:54:15;20.63;;;8.57;;
22160;SDS011;49035;48.812;11.762;2023-12-04T04:56:40;20.03;;;8.27;;
22160;SDS011;49035;48.812;11.762;2023-12-04T04:59:06;20.70;;;9.03;;
22160;SDS011;49035;48.812;11.762;2023-12-04T05:01:31;15.13;;;8.70;;
22160;SDS011;49035;48.812;11.762;2023-12-04T05:03:57;14.23;;;7.70;;
22160;SDS011;49035;48.812;11.762;2023-12-04T05:06:22;17.20;;;9.30;;
22160;SDS011;49035;48.812;11.762;2023-12-04T05:08:48;19.43;;;8.83;;
22160;SDS011;49035;48.812;11.762;2023-12-04T05:11:17;21.33;;;8.80;;
22160;SDS011;49035;48.812;11.762;2023-12-04T05:13:42;16.80;;;8.40;;
22160;SDS011;49035;48.812;11.762;2023-12-04T05:16:09;18.03;;;7.80;;
22160;SDS011;49035;48.812;11.762;2023-12-04T05:18:35;14.93;;;7.83;;
22160;SDS011;49035;48.812;11.762;2023-12-04T05:21:01;18.70;;;7.43;;
22160;SDS011;49035;48.812;11.762;2023-12-04T05:23:26;16.20;;;7.93;;
22160;SDS011;49035;48.812;11.762;2023-12-04T05:25:52;26.00;;;10.23;;
22160;SDS011;49035;48.812;11.762;2023-12-04T05:28:17;13.23;;;8.13;;
22160;SDS011;49035;48.812;11.762;2023-12-04T05:30:43;29.30;;;10.43;;
22160;SDS011;49035;48.812;11.762;2023-12-04T05:33:09;22.40;;;9.63;;
22160;SDS011;49035;48.812;11.762;2023-12-04T05:35:34;21.63;;;9.90;;
22160;SDS011;49035;48.812;11.762;2023-12-04T05:38:01;23.40;;;13.27;;
22160;SDS011;49035;48.812;11.762;2023-12-04T05:40:26;21.73;;;10.77;;
22160;SDS011;49035;48.812;11.762;2023-12-04T05:42:52;18.77;;;9.83;;
22160;SDS011;49035;48.812;11.762;2023-12-04T05:45:18;25.97;;;10.50;;
22160;SDS011;49035;48.812;11.762;2023-12-04T05:47:43;35.23;;;16.23;;
22160;SDS011;49035;48.812;11.762;2023-12-04T05:50:09;36.63;;;15.87;;
22160;SDS011;49035;48.812;11.762;2023-12-04T05:52:34;30.77;;;13.50;;
22160;SDS011;49035;48.812;11.762;2023-12-04T05:55:00;19.17;;;10.03;;
22160;SDS011;49035;48.812;11.762;2023-12-04T05:57:26;19.33;;;10.00;;
22160;SDS011;49035;48.812;11.762;2023-12-04T05:59:51;25.47;;;9.87;;
22160;SDS011;49035;48.812;11.762;2023-12-04T06:02:17;26.13;;;9.43;;
22160;SDS011;49035;48.812;11.762;2023-12-04T06:04:42;22.10;;;8.63;;
22160;SDS011;49035;48.812;11.762;2023-12-04T06:07:08;19.23;;;9.27;;
22160;SDS011;49035;48.812;11.762;2023-12-04T06:09:34;20.33;;;10.53;;
22160;SDS011;49035;48.812;11.762;2023-12-04T06:12:01;21.50;;;10.43;;
22160;SDS011;49035;48.812;11.762;2023-12-04T06:14:32;23.20;;;10.97;;
22160;SDS011;49035;48.812;11.762;2023-12-04T06:16:58;23.03;;;12.93;;
22160;SDS011;49035;48.812;11.762;2023-12-04T06:19:24;28.00;;;14.03;;
22160;SDS011;49035;48.812;11.762;2023-12-04T06:21:49;25.53;;;13.17;;
22160;SDS011;49035;48.812;11.762;2023-12-04T06:24:15;34.87;;;15.67;;
22160;SDS011;49035;48.812;11.762;2023-12-04T06:26:41;26.93;;;12.30;;
22160;SDS011;49035;48.812;11.762;2023-12-04T06:29:08;26.60;;;14.20;;
22160;SDS011;49035;48.812;11.762;2023-12-04T06:31:34;27.90;;;14.00;;
22160;SDS011;49035;48.812;11.762;2023-12-04T06:34:00;40.57;;;17.97;;
22160;SDS011;49035;48.812;11.762;2023-12-04T06:36:26;30.37;;;12.43;;
22160;SDS011;49035;48.812;11.762;2023-12-04T06:38:56;24.70;;;11.27;;
22160;SDS011;49035;48.812;11.762;2023-12-04T06:41:24;21.73;;;10.70;;
22160;SDS011;49035;48.812;11.762;2023-12-04T06:43:50;26.87;;;12.80;;
22160;SDS011;49035;48.812;11.762;2023-12-04T06:46:15;28.53;;;14.10;;
22160;SDS011;49035;48.812;11.762;2023-12-04T06:48:44;22.20;;;12.13;;
22160;SDS011;49035;48.812;11.762;2023-12-04T06:51:10;23.37;;;12.43;;
22160;SDS011;49035;48.812;11.762;2023-12-04T06:53:35;28.40;;;13.00;;
22160;SDS011;49035;48.812;11.762;2023-12-04T06:56:01;24.30;;;11.97;;
22160;SDS011;49035;48.812;11.762;2023-12-04T06:58:26;26.63;;;12.27;;
22160;SDS011;49035;48.812;11.762;2023-12-04T07:00:52;18.30;;;11.40;;
22160;SDS011;49035;48.812;11.762;2023-12-04T07:03:18;21.40;;;11.47;;
22160;SDS011;49035;48.812;11.762;2023-12-04T07:05:43;21.57;;;11.23;;
22160;SDS011;49035;48.812;11.762;2023-12-04T07:08:09;24.87;;;11.13;;
22160;SDS011;49035;48.812;11.762;2023-12-04T07:10:35;23.47;;;10.57;;
22160;SDS011;49035;48.812;11.762;2023-12-04T07:13:01;28.90;;;12.93;;
22160;SDS011;49035;48.812;11.762;2023-12-04T07:15:26;24.90;;;12.00;;
22160;SDS011;49035;48.812;11.762;2023-12-04T07:17:52;20.80;;;10.30;;
22160;SDS011;49035;48.812;11.762;2023-12-04T07:20:17;15.83;;;9.03;;
22160;SDS011;49035;48.812;11.762;2023-12-04T07:22:43;21.20;;;10.97;;
22160;SDS011;49035;48.812;11.762;2023-12-04T07:25:09;23.83;;;12.13;;
22160;SDS011;49035;48.812;11.762;2023-12-04T07:27:35;25.77;;;13.30;;
22160;SDS011;49035;48.812;11.762;2023-12-04T07:30:00;27.07;;;13.07;;
22160;SDS011;49035;48.812;11.762;2023-12-04T07:32:27;31.77;;;11.37;;
22160;SDS011;49035;48.812;11.762;2023-12-04T07:34:52;24.13;;;13.07;;
22160;SDS011;49035;48.812;11.762;2023-12-04T07:37:18;44.07;;;16.90;;
22160;SDS011;49035;48.812;11.762;2023-12-04T07:39:43;27.07;;;14.10;;
22160;SDS011;49035;48.812;11.762;2023-12-04T07:42:11;34.03;;;17.13;;
22160;SDS011;49035;48.812;11.762;2023-12-04T07:44:37;25.67;;;13.03;;
22160;SDS011;49035;48.812;11.762;2023-12-04T07:47:02;26.13;;;12.60;;
22160;SDS011;49035;48.812;11.762;2023-12-04T07:49:28;25.50;;;12.27;;
22160;SDS011;49035;48.812;11.762;2023-12-04T07:51:54;20.20;;;9.73;;
22160;SDS011;49035;48.812;11.762;2023-12-04T07:54:20;23.07;;;10.97;;
22160;SDS011;49035;48.812;11.762;2023-12-04T07:56:47;23.67;;;10.97;;
22160;SDS011;49035;48.812;11.762;2023-12-04T07:59:13;31.80;;;14.97;;
22160;SDS011;49035;48.812;11.762;2023-12-04T08:01:38;35.17;;;18.03;;
22160;SDS011;49035;48.812;11.762;2023-12-04T08:04:04;29.07;;;14.00;;
22160;SDS011;49035;48.812;11.762;2023-12-04T08:06:30;29.63;;;14.00;;
22160;SDS011;49035;48.812;11.762;2023-12-04T08:08:56;25.63;;;13.53;;
22160;SDS011;49035;48.812;11.762;2023-12-04T08:11:22;26.83;;;12.57;;
22160;SDS011;49035;48.812;11.762;2023-12-04T08:13:47;23.17;;;12.00;;
22160;SDS011;49035;48.812;11.762;2023-12-04T08:16:13;29.03;;;15.20;;
22160;SDS011;49035;48.812;11.762;2023-12-04T08:18:42;22.83;;;13.10;;
22160;SDS011;49035;48.812;11.762;2023-12-04T08:21:08;25.50;;;12.73;;
22160;SDS011;49035;48.812;11.762;2023-12-04T08:23:34;27.67;;;14.53;;
22160;SDS011;49035;48.812;11.762;2023-12-04T08:26:00;28.03;;;14.57;;
22160;SDS011;49035;48.812;11.762;2023-12-04T08:28:25;29.23;;;13.97;;
22160;SDS011;49035;48.812;11.762;2023-12-04T08:30:51;30.53;;;14.47;;
22160;SDS011;49035;48.812;11.762;2023-12-04T08:33:16;29.30;;;14.10;;
22160;SDS011;49035;48.812;11.762;2023-12-04T08:35:45;31.83;;;14.63;;
22160;SDS011;49035;48.812;11.762;2023-12-04T08:38:11;28.50;;;14.10;;
22160;SDS011;49035;48.812;11.762;2023-12-04T08:40:36;31.27;;;15.73;;
22160;SDS011;49035;48.812;11.762;2023-12-04T08:43:02;41.43;;;17.73;;
22160;SDS011;49035;48.812;11.762;2023-12-04T08:45:29;34.90;;;16.47;;
22160;SDS011;49035;48.812;11.762;2023-12-04T08:47:55;38.37;;;17.43;;
22160;SDS011;49035;48.812;11.762;2023-12-04T08:50:20;36.53;;;17.07;;
22160;SDS011;49035;48.812;11.762;2023-12-04T08:52:46;38.53;;;18.70;;
22160;SDS011;49035;48.812;11.762;2023-12-04T08:55:12;41.07;;;18.83;;
22160;SDS011;49035;48.812;11.762;2023-12-04T08:57:37;40.63;;;20.13;;
22160;SDS011;49035;48.812;11.762;2023-12-04T09:00:03;42.33;;;18.93;;
22160;SDS011;49035;48.812;11.762;2023-12-04T09:02:29;39.87;;;18.83;;
22160;SDS011;49035;48.812;11.762;2023-12-04T09:04:56;37.83;;;16.63;;
22160;SDS011;49035;48.812;11.762;2023-12-04T09:07:21;41.47;;;18.13;;
22160;SDS011;49035;48.812;11.762;2023-12-04T09:09:47;37.17;;;17.63;;
22160;SDS011;49035;48.812;11.762;2023-12-04T09:12:12;36.27;;;17.93;;
22160;SDS011;49035;48.812;11.762;2023-12-04T09:14:38;37.43;;;17.20;;
22160;SDS011;49035;48.812;11.762;2023-12-04T09:17:04;35.63;;;17.47;;
22160;SDS011;49035;48.812;11.762;2023-12-04T09:19:29;34.67;;;17.40;;
22160;SDS011;49035;48.812;11.762;2023-12-04T09:21:55;39.27;;;17.80;;
22160;SDS011;49035;48.812;11.762;2023-12-04T09:24:22;36.67;;;17.97;;
22160;SDS011;49035;48.812;11.762;2023-12-04T09:26:48;37.77;;;18.23;;
22160;SDS011;49035;48.812;11.762;2023-12-04T09:29:14;38.10;;;19.93;;
22160;SDS011;49035;48.812;11.762;2023-12-04T09:31:41;38.10;;;19.67;;
22160;SDS011;49035;48.812;11.762;2023-12-04T09:34:07;35.87;;;18.90;;
22160;SDS011;49035;48.812;11.762;2023-12-04T09:36:33;48.37;;;21.23;;
22160;SDS011;49035;48.812;11.762;2023-12-04T09:38:59;46.70;;;21.17;;
22160;SDS011;49035;48.812;11.762;2023-12-04T09:41:25;48.80;;;22.17;;
22160;SDS011;49035;48.812;11.762;2023-12-04T09:43:51;43.30;;;20.20;;
22160;SDS011;49035;48.812;11.762;2023-12-04T09:46:16;48.87;;;21.23;;
22160;SDS011;49035;48.812;11.762;2023-12-04T09:48:43;50.73;;;23.10;;
22160;SDS011;49035;48.812;11.762;2023-12-04T09:51:09;45.17;;;20.40;;
22160;SDS011;49035;48.812;11.762;2023-12-04T09:53:36;48.53;;;20.97;;
22160;SDS011;49035;48.812;11.762;2023-12-04T09:56:06;48.93;;;22.30;;
22160;SDS011;49035;48.812;11.762;2023-12-04T09:58:34;49.20;;;23.93;;
22160;SDS011;49035;48.812;11.762;2023-12-04T10:01:01;53.93;;;23.03;;
22160;SDS011;49035;48.812;11.762;2023-12-04T10:03:27;58.17;;;24.07;;
22160;SDS011;49035;48.812;11.762;2023-12-04T10:05:54;45.13;;;21.40;;
22160;SDS011;49035;48.812;11.762;2023-12-04T10:08:20;47.73;;;23.77;;
22160;SDS011;49035;48.812;11.762;2023-12-04T10:10:46;54.67;;;22.90;;
22160;SDS011;49035;48.812;11.762;2023-12-04T10:13:12;47.20;;;22.30;;
22160;SDS011;49035;48.812;11.762;2023-12-04T10:15:47;42.80;;;20.63;;
22160;SDS011;49035;48.812;11.762;2023-12-04T10:18:26;42.43;;;20.63;;
22160;SDS011;49035;48.812;11.762;2023-12-04T10:20:55;41.43;;;19.50;;
22160;SDS011;49035;48.812;11.762;2023-12-04T10:23:21;36.77;;;18.60;;
22160;SDS011;49035;48.812;11.762;2023-12-04T10:25:48;33.30;;;15.80;;
22160;SDS011;49035;48.812;11.762;2023-12-04T10:28:16;31.43;;;14.23;;
22160;SDS011;49035;48.812;11.762;2023-12-04T10:30:42;30.33;;;14.83;;
22160;SDS011;49035;48.812;11.762;2023-12-04T10:33:08;28.13;;;13.90;;
22160;SDS011;49035;48.812;11.762;2023-12-04T10:35:35;26.23;;;13.87;;
22160;SDS011;49035;48.812;11.762;2023-12-04T10:38:01;27.13;;;13.70;;
22160;SDS011;49035;48.812;11.762;2023-12-04T10:40:31;27.57;;;15.07;;
22160;SDS011;49035;48.812;11.762;2023-12-04T10:45:49;28.13;;;15.13;;
22160;SDS011;49035;48.812;11.762;2023-12-04T10:48:15;27.00;;;14.63;;
22160;SDS011;49035;48.812;11.762;2023-12-04T10:50:46;27.47;;;14.43;;
22160;SDS011;49035;48.812;11.762;2023-12-04T10:53:13;26.27;;;13.90;;
22160;SDS011;49035;48.812;11.762;2023-12-04T10:55:40;28.30;;;15.33;;
22160;SDS011;49035;48.812;11.762;2023-12-04T10:58:08;27.90;;;14.43;;
22160;SDS011;49035;48.812;11.762;2023-12-04T11:00:35;27.57;;;14.77;;
22160;SDS011;49035;48.812;11.762;2023-12-04T11:03:09;28.37;;;16.67;;
22160;SDS011;49035;48.812;11.762;2023-12-04T11:05:38;28.13;;;15.07;;
22160;SDS011;49035;48.812;11.762;2023-12-04T11:08:11;27.13;;;13.03;;
22160;SDS011;49035;48.812;11.762;2023-12-04T11:10:44;23.30;;;13.77;;
22160;SDS011;49035;48.812;11.762;2023-12-04T11:13:17;28.00;;;13.57;;
22160;SDS011;49035;48.812;11.762;2023-12-04T11:15:56;28.43;;;14.53;;
22160;SDS011;49035;48.812;11.762;2023-12-04T11:18:31;29.10;;;14.80;;
22160;SDS011;49035;48.812;11.762;2023-12-04T11:21:07;25.50;;;12.90;;
22160;SDS011;49035;48.812;11.762;2023-12-04T11:23:34;22.63;;;12.73;;
22160;SDS011;49035;48.812;11.762;2023-12-04T11:26:01;24.43;;;11.60;;
22160;SDS011;49035;48.812;11.762;2023-12-04T11:28:28;22.00;;;11.47;;
22160;SDS011;49035;48.812;11.762;2023-12-04T11:30:55;32.60;;;16.93;;
22160;SDS011;49035;48.812;11.762;2023-12-04T11:33:20;24.83;;;12.60;;
22160;SDS011;49035;48.812;11.762;2023-12-04T11:35:46;21.17;;;10.83;;
22160;SDS011;49035;48.812;11.762;2023-12-04T11:38:15;23.30;;;11.63;;
22160;SDS011;49035;48.812;11.762;2023-12-04T11:40:42;30.13;;;17.00;;
22160;SDS011;49035;48.812;11.762;2023-12-04T11:43:27;24.90;;;14.67;;
22160;SDS011;49035;48.812;11.762;2023-12-04T11:46:06;22.10;;;12.30;;
22160;SDS011;49035;48.812;11.762;2023-12-04T11:48:38;22.47;;;13.20;;
22160;SDS011;49035;48.812;11.762;2023-12-04T11:51:08;21.07;;;12.20;;
22160;SDS011;49035;48.812;11.762;2023-12-04T11:53:39;23.93;;;11.73;;
22160;SDS011;49035;48.812;11.762;2023-12-04T11:56:09;19.90;;;10.50;;
22160;SDS011;49035;48.812;11.762;2023-12-04T11:58:41;20.03;;;10.40;;
22160;SDS011;49035;48.812;11.762;2023-12-04T12:01:10;19.80;;;10.77;;
22160;SDS011;49035;48.812;11.762;2023-12-04T12:03:36;20.57;;;11.17;;
22160;SDS011;49035;48.812;11.762;2023-12-04T12:06:02;34.63;;;18.17;;
22160;SDS011;49035;48.812;11.762;2023-12-04T12:08:29;23.40;;;12.07;;
22160;SDS011;49035;48.812;11.762;2023-12-04T12:10:54;23.03;;;11.23;;
22160;SDS011;49035;48.812;11.762;2023-12-04T12:13:21;23.27;;;12.07;;
22160;SDS011;49035;48.812;11.762;2023-12-04T12:15:48;19.60;;;10.83;;
22160;SDS011;49035;48.812;11.762;2023-12-04T12:18:16;20.87;;;11.67;;
22160;SDS011;49035;48.812;11.762;2023-12-04T12:20:41;20.57;;;11.33;;
22160;SDS011;49035;48.812;11.762;2023-12-04T12:23:07;19.63;;;11.90;;
22160;SDS011;49035;48.812;11.762;2023-12-04T12:25:34;15.67;;;9.23;;
22160;SDS011;49035;48.812;11.762;2023-12-04T12:28:04;17.43;;;10.10;;
22160;SDS011;49035;48.812;11.762;2023-12-04T12:30:30;17.70;;;9.63;;
22160;SDS011;49035;48.812;11.762;2023-12-04T12:32:55;17.10;;;9.03;;
22160;SDS011;49035;48.812;11.762;2023-12-04T12:35:22;22.30;;;11.20;;
22160;SDS011;49035;48.812;11.762;2023-12-04T12:37:48;21.80;;;11.30;;
22160;SDS011;49035;48.812;11.762;2023-12-04T12:40:18;15.60;;;10.03;;
22160;SDS011;49035;48.812;11.762;2023-12-04T12:42:45;22.93;;;12.37;;
22160;SDS011;49035;48.812;11.762;2023-12-04T12:45:11;21.53;;;10.60;;
22160;SDS011;49035;48.812;11.762;2023-12-04T12:47:37;21.47;;;11.40;;
22160;SDS011;49035;48.812;11.762;2023-12-04T12:50:07;15.63;;;8.77;;
22160;SDS011;49035;48.812;11.762;2023-12-04T12:52:35;17.40;;;9.67;;
22160;SDS011;49035;48.812;11.762;2023-12-04T12:55:02;18.70;;;9.10;;
22160;SDS011;49035;48.812;11.762;2023-12-04T12:57:27;21.47;;;10.67;;
22160;SDS011;49035;48.812;11.762;2023-12-04T12:59:53;19.50;;;9.63;;
22160;SDS011;49035;48.812;11.762;2023-12-04T13:02:34;19.73;;;10.73;;
22160;SDS011;49035;48.812;11.762;2023-12-04T13:05:01;23.43;;;11.77;;
22160;SDS011;49035;48.812;11.762;2023-12-04T13:07:26;22.70;;;10.17;;
22160;SDS011;49035;48.812;11.762;2023-12-04T13:09:52;22.30;;;10.33;;
22160;SDS011;49035;48.812;11.762;2023-12-04T13:12:18;24.87;;;11.67;;
22160;SDS011;49035;48.812;11.762;2023-12-04T13:14:44;24.97;;;11.50;;
22160;SDS011;49035;48.812;11.762;2023-12-04T13:17:09;26.13;;;11.80;;
22160;SDS011;49035;48.812;11.762;2023-12-04T13:19:35;19.00;;;10.30;;
22160;SDS011;49035;48.812;11.762;2023-12-04T13:22:01;18.50;;;10.33;;
22160;SDS011;49035;48.812;11.762;2023-12-04T13:24:28;20.47;;;10.13;;
22160;SDS011;49035;48.812;11.762;2023-12-04T13:26:53;16.90;;;9.20;;
22160;SDS011;49035;48.812;11.762;2023-12-04T13:29:19;18.20;;;9.93;;
22160;SDS011;49035;48.812;11.762;2023-12-04T13:31:44;18.80;;;10.17;;
22160;SDS011;49035;48.812;11.762;2023-12-04T13:34:13;24.60;;;11.60;;
22160;SDS011;49035;48.812;11.762;2023-12-04T13:36:39;18.23;;;10.73;;
22160;SDS011;49035;48.812;11.762;2023-12-04T13:39:05;20.10;;;9.97;;
22160;SDS011;49035;48.812;11.762;2023-12-04T13:41:41;18.33;;;10.80;;
22160;SDS011;49035;48.812;11.762;2023-12-04T13:44:26;22.00;;;11.70;;
22160;SDS011;49035;48.812;11.762;2023-12-04T13:46:52;19.57;;;12.30;;
22160;SDS011;49035;48.812;11.762;2023-12-04T13:49:17;25.73;;;11.13;;
22160;SDS011;49035;48.812;11.762;2023-12-04T13:51:44;21.77;;;10.63;;
22160;SDS011;49035;48.812;11.762;2023-12-04T13:54:10;20.37;;;11.90;;
22160;SDS011;49035;48.812;11.762;2023-12-04T13:56:46;25.23;;;16.23;;
22160;SDS011;49035;48.812;11.762;2023-12-04T13:59:19;24.23;;;14.50;;
22160;SDS011;49035;48.812;11.762;2023-12-04T14:01:49;25.43;;;14.60;;
22160;SDS011;49035;48.812;11.762;2023-12-04T14:04:16;26.77;;;13.23;;
22160;SDS011;49035;48.812;11.762;2023-12-04T14:06:41;34.03;;;18.07;;
22160;SDS011;49035;48.812;11.762;2023-12-04T14:09:07;35.27;;;17.13;;
22160;SDS011;49035;48.812;11.762;2023-12-04T14:11:38;27.03;;;14.87;;
22160;SDS011;49035;48.812;11.762;2023-12-04T14:14:04;21.10;;;11.07;;